createdAt,value
2023-01-22T00:01:05.017Z,0.00
2023-01-22T00:03:32.832Z,0.00
2023-01-22T00:06:00.282Z,0.10
2023-01-22T00:08:28.086Z,0.00
2023-01-22T00:10:56.421Z,0.00
2023-01-22T00:13:25.300Z,0.00
2023-01-22T00:15:56.579Z,0.00
2023-01-22T00:18:24.031Z,0.00
2023-01-22T00:20:54.348Z,0.00
2023-01-22T00:23:22.624Z,0.00
2023-01-22T00:25:49.956Z,0.00
2023-01-22T00:28:17.720Z,0.00
2023-01-22T00:30:44.969Z,0.00
2023-01-22T00:33:12.562Z,0.00
2023-01-22T00:35:40.028Z,0.00
2023-01-22T00:38:07.636Z,-0.10
2023-01-22T00:40:34.797Z,0.00
2023-01-22T00:43:02.861Z,0.00
2023-01-22T00:45:31.002Z,-0.10
2023-01-22T00:48:01.353Z,0.00
2023-01-22T00:50:28.908Z,-0.10
2023-01-22T00:52:56.332Z,-0.10
2023-01-22T00:55:23.833Z,0.00
2023-01-22T00:57:51.212Z,0.00
2023-01-22T01:00:20.294Z,0.00
2023-01-22T01:03:09.116Z,0.00
2023-01-22T01:05:36.823Z,0.00
2023-01-22T01:08:04.710Z,0.00
2023-01-22T01:10:32.365Z,0.00
2023-01-22T01:12:59.537Z,0.00
2023-01-22T01:15:27.357Z,0.00
2023-01-22T01:17:56.261Z,0.00
2023-01-22T01:20:23.799Z,0.00
2023-01-22T01:22:51.100Z,0.10
2023-01-22T01:25:18.564Z,0.10
2023-01-22T01:27:45.898Z,0.00
2023-01-22T01:30:13.524Z,0.00
2023-01-22T01:32:40.919Z,0.00
2023-01-22T01:35:09.059Z,-0.10
2023-01-22T01:37:38.765Z,-0.10
2023-01-22T01:40:07.084Z,0.00
2023-01-22T01:42:39.247Z,0.00
2023-01-22T01:45:28.469Z,0.00
2023-01-22T01:48:22.637Z,0.00
2023-01-22T01:50:58.173Z,0.00
2023-01-22T01:53:26.453Z,0.00
2023-01-22T01:55:56.738Z,0.00
2023-01-22T01:58:27.334Z,0.10
2023-01-22T02:00:59.956Z,0.10
2023-01-22T02:03:29.738Z,0.10
2023-01-22T02:05:58.193Z,0.10
2023-01-22T02:08:25.576Z,0.10
2023-01-22T02:10:54.286Z,0.00
2023-01-22T02:13:28.506Z,0.00
2023-01-22T02:15:56.135Z,0.00
2023-01-22T02:18:23.774Z,0.00
2023-01-22T02:21:00.762Z,0.00
2023-01-22T02:23:30.298Z,0.00
2023-01-22T02:25:58.985Z,0.00
2023-01-22T02:28:26.789Z,0.10
2023-01-22T02:30:56.221Z,0.10
2023-01-22T02:33:23.604Z,0.10
2023-01-22T02:35:50.913Z,0.10
2023-01-22T02:38:18.751Z,0.10
2023-01-22T02:40:49.453Z,0.00
2023-01-22T02:43:19.681Z,0.00
2023-01-22T02:45:47.120Z,0.00
2023-01-22T02:48:14.654Z,0.00
2023-01-22T02:50:42.002Z,0.10
2023-01-22T02:53:09.357Z,0.00
2023-01-22T02:55:38.903Z,0.00
2023-01-22T02:58:06.871Z,0.10
2023-01-22T03:00:34.271Z,0.00
2023-01-22T03:03:08.057Z,0.10
2023-01-22T03:05:35.744Z,0.00
2023-01-22T03:08:04.897Z,0.00
2023-01-22T03:10:32.437Z,0.00
2023-01-22T03:13:20.727Z,0.00
2023-01-22T03:16:13.752Z,0.00
2023-01-22T03:19:00.967Z,0.00
2023-01-22T03:21:28.610Z,0.00
2023-01-22T03:23:56.012Z,0.00
2023-01-22T03:26:24.806Z,0.00
2023-01-22T03:28:53.331Z,0.10
2023-01-22T03:31:21.742Z,0.00
2023-01-22T03:33:49.156Z,0.10
2023-01-22T03:36:16.554Z,0.00
2023-01-22T03:38:49.052Z,0.00
2023-01-22T03:41:20.745Z,0.00
2023-01-22T03:43:49.499Z,0.00
2023-01-22T03:46:20.724Z,0.00
2023-01-22T03:48:53.986Z,0.00
2023-01-22T03:51:22.358Z,0.00
2023-01-22T03:53:50.428Z,0.00
2023-01-22T03:56:20.830Z,0.00
2023-01-22T03:58:50.314Z,0.00
2023-01-22T04:01:20.867Z,0.00
2023-01-22T04:03:49.100Z,0.00
2023-01-22T04:06:16.372Z,0.00
2023-01-22T04:08:46.132Z,0.00
2023-01-22T04:11:14.610Z,-0.10
2023-01-22T04:13:43.964Z,0.00
2023-01-22T04:16:12.892Z,0.00
2023-01-22T04:19:00.106Z,-0.10
2023-01-22T04:21:49.143Z,-0.10
2023-01-22T04:24:17.092Z,-0.10
2023-01-22T04:26:44.503Z,0.00
2023-01-22T04:29:13.458Z,-0.10
2023-01-22T04:31:41.089Z,-0.10
2023-01-22T04:34:28.308Z,-0.10
2023-01-22T04:37:08.683Z,-0.10
2023-01-22T04:39:39.517Z,-0.20
2023-01-22T04:42:06.941Z,-0.20
2023-01-22T04:44:34.311Z,-0.30
2023-01-22T04:47:01.550Z,-0.30
2023-01-22T04:49:29.013Z,-0.30
2023-01-22T04:51:58.488Z,-0.30
2023-01-22T04:54:26.647Z,-0.20
2023-01-22T04:56:54.056Z,-0.20
2023-01-22T04:59:21.371Z,-0.30
2023-01-22T05:01:51.112Z,-0.20
2023-01-22T05:04:21.934Z,-0.20
2023-01-22T05:06:49.873Z,-0.20
2023-01-22T05:09:17.540Z,-0.20
2023-01-22T05:11:52.117Z,-0.20
2023-01-22T05:14:19.491Z,-0.20
2023-01-22T05:16:49.309Z,-0.30
2023-01-22T05:19:16.851Z,-0.30
2023-01-22T05:21:44.609Z,-0.30
2023-01-22T05:24:16.504Z,-0.20
2023-01-22T05:26:43.899Z,-0.20
2023-01-22T05:29:15.495Z,-0.30
2023-01-22T05:32:05.858Z,-0.30
2023-01-22T05:34:37.203Z,-0.30
2023-01-22T05:37:05.223Z,-0.30
2023-01-22T05:39:32.754Z,-0.30
2023-01-22T05:42:03.233Z,-0.30
2023-01-22T05:44:33.250Z,-0.20
2023-01-22T05:47:01.463Z,-0.20
2023-01-22T05:49:41.201Z,-0.20
2023-01-22T05:52:11.210Z,-0.20
2023-01-22T05:54:40.250Z,-0.20
2023-01-22T05:57:08.523Z,-0.30
2023-01-22T05:59:38.485Z,-0.30
2023-01-22T06:02:08.326Z,-0.30
2023-01-22T06:04:40.714Z,-0.30
2023-01-22T06:07:18.646Z,-0.30
2023-01-22T06:09:46.495Z,-0.30
2023-01-22T06:12:16.119Z,-0.30
2023-01-22T06:14:43.497Z,-0.30
2023-01-22T06:17:12.404Z,-0.30
2023-01-22T06:19:44.459Z,-0.30
2023-01-22T06:22:12.480Z,-0.30
2023-01-22T06:24:47.122Z,-0.20
2023-01-22T06:27:16.703Z,-0.20
2023-01-22T06:29:55.933Z,-0.20
2023-01-22T06:32:23.471Z,-0.20
2023-01-22T06:34:53.101Z,-0.20
2023-01-22T06:37:21.943Z,-0.20
2023-01-22T06:39:50.303Z,-0.10
2023-01-22T06:42:38.319Z,-0.10
2023-01-22T06:45:07.535Z,-0.10
2023-01-22T06:47:35.874Z,-0.10
2023-01-22T06:50:04.586Z,-0.10
2023-01-22T06:52:31.843Z,-0.10
2023-01-22T06:54:59.773Z,-0.10
2023-01-22T06:57:27.171Z,-0.10
2023-01-22T06:59:54.825Z,0.00
2023-01-22T07:02:22.318Z,0.00
2023-01-22T07:04:49.733Z,0.00
2023-01-22T07:07:16.975Z,0.00
2023-01-22T07:09:44.141Z,0.00
2023-01-22T07:12:11.386Z,0.00
2023-01-22T07:14:38.700Z,0.00
2023-01-22T07:17:06.026Z,0.10
2023-01-22T07:19:33.463Z,0.10
2023-01-22T07:22:00.724Z,0.10
2023-01-22T07:24:27.994Z,0.20
2023-01-22T07:26:55.574Z,0.20
2023-01-22T07:29:22.883Z,0.30
2023-01-22T07:31:50.328Z,0.30
2023-01-22T07:34:17.530Z,0.30
2023-01-22T07:36:46.905Z,0.40
2023-01-22T07:39:14.266Z,0.40
2023-01-22T07:41:42.005Z,0.50
2023-01-22T07:44:12.154Z,0.50
2023-01-22T07:46:39.981Z,0.60
2023-01-22T07:49:07.548Z,0.60
2023-01-22T07:51:35.112Z,0.60
2023-01-22T07:54:03.327Z,0.60
2023-01-22T07:56:30.678Z,0.70
2023-01-22T07:58:57.859Z,0.80
2023-01-22T08:01:25.613Z,0.80
2023-01-22T08:03:52.926Z,0.80
2023-01-22T08:06:21.229Z,0.80
2023-01-22T08:08:48.690Z,0.80
2023-01-22T08:11:16.380Z,0.80
2023-01-22T08:13:43.516Z,0.80
2023-01-22T08:16:10.962Z,0.90
2023-01-22T08:18:38.304Z,0.90
2023-01-22T08:21:06.092Z,0.90
2023-01-22T08:23:33.642Z,1.00
2023-01-22T08:26:04.225Z,1.00
2023-01-22T08:28:31.925Z,1.00
2023-01-22T08:31:02.062Z,1.00
2023-01-22T08:33:31.556Z,1.10
2023-01-22T08:35:58.982Z,1.10
2023-01-22T08:38:26.344Z,1.10
2023-01-22T08:40:54.158Z,1.20
2023-01-22T08:43:21.721Z,1.20
2023-01-22T08:45:50.032Z,1.40
2023-01-22T08:48:18.185Z,1.50
2023-01-22T08:50:45.605Z,1.70
2023-01-22T08:53:12.899Z,1.90
2023-01-22T08:55:40.375Z,2.00
2023-01-22T08:58:08.075Z,2.10
2023-01-22T09:00:35.541Z,2.20
2023-01-22T09:03:02.799Z,2.40
2023-01-22T09:05:30.291Z,2.40
2023-01-22T09:07:57.566Z,2.50
2023-01-22T09:10:25.217Z,2.50
2023-01-22T09:12:52.750Z,2.50
2023-01-22T09:15:20.049Z,2.50
2023-01-22T09:17:47.403Z,2.60
2023-01-22T09:20:15.020Z,2.60
2023-01-22T09:22:45.805Z,2.60
2023-01-22T09:25:13.636Z,2.70
2023-01-22T09:27:41.095Z,2.90
2023-01-22T09:30:09.887Z,2.90
2023-01-22T09:32:37.316Z,2.90
2023-01-22T09:35:04.834Z,3.00
2023-01-22T09:37:32.311Z,3.00
2023-01-22T09:39:59.760Z,3.00
2023-01-22T09:42:32.480Z,2.90
2023-01-22T09:45:05.854Z,2.80
2023-01-22T09:47:40.458Z,2.80
2023-01-22T09:50:26.115Z,2.60
2023-01-22T09:52:56.356Z,2.50
2023-01-22T09:55:27.539Z,2.40
2023-01-22T09:57:56.887Z,2.40
2023-01-22T10:00:35.665Z,2.50
2023-01-22T10:03:13.483Z,2.60
2023-01-22T10:05:44.917Z,2.60
2023-01-22T10:08:17.156Z,2.60
2023-01-22T10:10:44.586Z,2.60
2023-01-22T10:13:33.678Z,2.60
2023-01-22T10:16:01.758Z,2.70
2023-01-22T10:19:09.025Z,2.60
2023-01-22T10:21:59.461Z,2.50
2023-01-22T10:24:27.593Z,2.50
2023-01-22T10:26:59.342Z,2.60
2023-01-22T10:29:33.905Z,2.50
2023-01-22T10:32:20.636Z,2.60
2023-01-22T10:35:16.507Z,2.60
2023-01-22T10:37:47.099Z,2.50
2023-01-22T10:40:23.352Z,2.40
2023-01-22T10:43:11.822Z,2.50
2023-01-22T10:45:40.181Z,2.40
2023-01-22T10:48:17.358Z,2.40
2023-01-22T10:50:45.731Z,2.30
2023-01-22T10:53:29.493Z,2.40
2023-01-22T10:55:59.352Z,2.40
2023-01-22T10:58:33.750Z,2.40
2023-01-22T11:01:03.389Z,2.50
2023-01-22T11:03:34.201Z,2.40
2023-01-22T11:06:24.523Z,2.40
2023-01-22T11:09:16.091Z,2.40
2023-01-22T11:11:48.699Z,2.40
2023-01-22T11:14:21.909Z,2.30
2023-01-22T11:16:52.804Z,2.40
2023-01-22T11:19:36.283Z,2.40
2023-01-22T11:22:15.164Z,2.50
2023-01-22T11:24:47.837Z,2.60
2023-01-22T11:27:29.539Z,2.70
2023-01-22T11:30:21.578Z,2.90
2023-01-22T11:32:56.649Z,3.20
2023-01-22T11:35:47.375Z,3.40
2023-01-22T11:38:25.662Z,3.70
2023-01-22T11:41:07.611Z,3.80
2023-01-22T11:43:41.131Z,4.00
2023-01-22T11:46:28.297Z,4.20
2023-01-22T11:49:09.004Z,4.40
2023-01-22T11:51:56.171Z,4.50
2023-01-22T11:54:44.456Z,4.70
2023-01-22T11:57:37.746Z,4.70
2023-01-22T12:00:24.769Z,4.70
2023-01-22T12:03:11.978Z,4.80
2023-01-22T12:05:39.611Z,4.80
2023-01-22T12:08:26.800Z,4.50
2023-01-22T12:10:57.524Z,4.30
2023-01-22T12:13:26.901Z,4.20
2023-01-22T12:16:17.714Z,4.00
2023-01-22T12:19:08.904Z,3.80
2023-01-22T12:21:47.603Z,3.50
2023-01-22T12:24:29.566Z,3.20
2023-01-22T12:27:03.083Z,3.10
2023-01-22T12:29:35.465Z,3.00
2023-01-22T12:32:10.972Z,2.90
2023-01-22T12:34:41.489Z,2.80
2023-01-22T12:37:15.094Z,2.80
2023-01-22T12:40:01.603Z,2.70
2023-01-22T12:42:56.563Z,2.70
2023-01-22T12:45:29.880Z,2.60
2023-01-22T12:48:17.133Z,2.60
2023-01-22T12:50:56.226Z,2.60
2023-01-22T12:53:28.529Z,2.60
2023-01-22T12:56:11.934Z,2.60
2023-01-22T12:58:41.710Z,2.60
2023-01-22T13:01:10.350Z,2.60
2023-01-22T13:03:39.680Z,2.60
2023-01-22T13:06:20.753Z,2.70
2023-01-22T13:08:48.316Z,2.60
2023-01-22T13:11:35.437Z,2.60
2023-01-22T13:14:24.827Z,2.50
2023-01-22T13:17:00.643Z,2.50
2023-01-22T13:19:32.392Z,2.50
2023-01-22T13:22:01.226Z,2.40
2023-01-22T13:24:29.112Z,2.40
2023-01-22T13:27:00.515Z,2.50
2023-01-22T13:29:33.177Z,2.40
2023-01-22T13:32:05.379Z,2.50
2023-01-22T13:34:33.292Z,2.60
2023-01-22T13:37:00.687Z,2.70
2023-01-22T13:39:31.245Z,2.80
2023-01-22T13:42:02.158Z,2.80
2023-01-22T13:44:36.268Z,2.90
2023-01-22T13:47:04.721Z,2.80
2023-01-22T13:49:35.258Z,2.70
2023-01-22T13:52:06.451Z,2.60
2023-01-22T13:54:43.837Z,2.40
2023-01-22T13:57:13.976Z,2.40
2023-01-22T13:59:51.799Z,2.40
2023-01-22T14:02:30.030Z,2.30
2023-01-22T14:04:57.784Z,2.20
2023-01-22T14:07:30.736Z,2.10
2023-01-22T14:10:14.206Z,2.10
2023-01-22T14:12:41.693Z,2.00
2023-01-22T14:15:19.436Z,1.90
2023-01-22T14:17:49.719Z,1.90
2023-01-22T14:20:18.488Z,1.90
2023-01-22T14:22:46.155Z,1.90
2023-01-22T14:25:13.707Z,1.90
2023-01-22T14:27:44.375Z,1.90
2023-01-22T14:30:15.169Z,1.80
2023-01-22T14:32:43.688Z,1.90
2023-01-22T14:35:20.710Z,1.90
2023-01-22T14:37:48.263Z,1.90
2023-01-22T14:40:17.793Z,1.80
2023-01-22T14:42:46.988Z,1.80
2023-01-22T14:45:16.727Z,1.80
2023-01-22T14:47:44.134Z,1.80
2023-01-22T14:50:11.916Z,1.80
2023-01-22T14:52:39.815Z,1.80
2023-01-22T14:55:07.252Z,1.70
2023-01-22T14:57:35.147Z,1.70
2023-01-22T15:00:05.088Z,1.70
2023-01-22T15:02:33.058Z,1.60
2023-01-22T15:05:00.691Z,1.60
2023-01-22T15:07:27.942Z,1.60
2023-01-22T15:09:55.422Z,1.60
2023-01-22T15:12:23.490Z,1.60
2023-01-22T15:14:51.026Z,1.60
2023-01-22T15:17:18.489Z,1.60
2023-01-22T15:19:46.103Z,1.60
2023-01-22T15:22:14.914Z,1.50
2023-01-22T15:24:44.177Z,1.50
2023-01-22T15:27:12.147Z,1.40
2023-01-22T15:29:39.738Z,1.40
2023-01-22T15:32:07.391Z,1.40
2023-01-22T15:34:34.992Z,1.40
2023-01-22T15:37:03.884Z,1.30
2023-01-22T15:39:31.290Z,1.30
2023-01-22T15:41:58.712Z,1.30
2023-01-22T15:44:26.400Z,1.30
2023-01-22T15:46:54.197Z,1.30
2023-01-22T15:49:21.827Z,1.30
2023-01-22T15:51:49.264Z,1.30
2023-01-22T15:54:16.771Z,1.20
2023-01-22T15:56:44.207Z,1.20
2023-01-22T15:59:12.587Z,1.20
2023-01-22T16:01:40.729Z,1.10
2023-01-22T16:04:09.929Z,1.10
2023-01-22T16:06:37.600Z,1.10
2023-01-22T16:09:07.518Z,1.10
2023-01-22T16:11:35.773Z,1.10
2023-01-22T16:14:03.688Z,1.10
2023-01-22T16:16:35.308Z,1.10
2023-01-22T16:19:05.390Z,1.10
2023-01-22T16:21:33.078Z,1.10
2023-01-22T16:24:02.069Z,1.10
2023-01-22T16:26:32.390Z,1.10
2023-01-22T16:29:02.711Z,1.00
2023-01-22T16:31:32.786Z,1.00
2023-01-22T16:34:09.158Z,1.00
2023-01-22T16:36:37.469Z,1.00
2023-01-22T16:39:05.261Z,1.00
2023-01-22T16:41:35.058Z,1.00
2023-01-22T16:44:08.035Z,1.00
2023-01-22T16:46:38.882Z,1.00
2023-01-22T16:49:10.731Z,1.00
2023-01-22T16:51:40.010Z,1.00
2023-01-22T16:54:08.270Z,1.00
2023-01-22T16:56:36.955Z,0.90
2023-01-22T16:59:04.589Z,0.90
2023-01-22T17:01:32.515Z,0.90
2023-01-22T17:04:00.039Z,0.90
2023-01-22T17:06:32.703Z,0.80
2023-01-22T17:09:00.721Z,0.80
2023-01-22T17:11:28.107Z,0.80
2023-01-22T17:13:55.556Z,0.80
2023-01-22T17:16:23.122Z,0.80
2023-01-22T17:18:51.006Z,0.80
2023-01-22T17:21:19.562Z,0.80
2023-01-22T17:23:47.181Z,0.70
2023-01-22T17:26:16.287Z,0.70
2023-01-22T17:28:44.253Z,0.80
2023-01-22T17:31:17.129Z,0.80
2023-01-22T17:33:45.224Z,0.80
2023-01-22T17:36:15.488Z,0.80
2023-01-22T17:38:43.792Z,0.80
2023-01-22T17:41:15.141Z,0.80
2023-01-22T17:43:45.606Z,0.80
2023-01-22T17:46:16.885Z,0.80
2023-01-22T17:48:46.041Z,0.80
2023-01-22T17:51:16.995Z,0.80
2023-01-22T17:53:46.213Z,0.80
2023-01-22T17:56:18.561Z,0.80
2023-01-22T17:58:50.521Z,0.80
2023-01-22T18:01:20.275Z,0.90
2023-01-22T18:03:48.327Z,0.90
2023-01-22T18:06:17.246Z,0.90
2023-01-22T18:08:44.892Z,0.90
2023-01-22T18:11:15.168Z,0.80
2023-01-22T18:13:43.065Z,0.80
2023-01-22T18:16:12.777Z,0.80
2023-01-22T18:18:40.465Z,0.80
2023-01-22T18:21:11.811Z,0.80
2023-01-22T18:23:39.307Z,0.80
2023-01-22T18:26:07.677Z,0.80
2023-01-22T18:28:35.909Z,0.80
2023-01-22T18:31:07.617Z,0.80
2023-01-22T18:33:37.724Z,0.80
2023-01-22T18:36:08.842Z,0.80
2023-01-22T18:38:37.346Z,0.80
2023-01-22T18:41:11.130Z,0.80
2023-01-22T18:43:39.157Z,0.80
2023-01-22T18:46:09.149Z,0.80
2023-01-22T18:48:37.622Z,0.80
2023-01-22T18:51:06.143Z,0.80
2023-01-22T18:53:35.645Z,0.80
2023-01-22T18:56:06.046Z,0.70
2023-01-22T18:58:34.475Z,0.70
2023-01-22T19:01:17.718Z,0.70
2023-01-22T19:03:48.061Z,0.80
2023-01-22T19:06:17.811Z,0.80
2023-01-22T19:08:48.595Z,0.80
2023-01-22T19:11:17.140Z,0.80
2023-01-22T19:13:45.997Z,0.90
2023-01-22T19:16:16.568Z,0.90
2023-01-22T19:18:47.127Z,0.90
2023-01-22T19:21:17.721Z,0.80
2023-01-22T19:23:47.303Z,0.80
2023-01-22T19:26:19.122Z,0.80
2023-01-22T19:28:47.511Z,0.80
2023-01-22T19:31:18.817Z,0.80
2023-01-22T19:33:47.612Z,0.80
2023-01-22T19:37:06.653Z,0.90
2023-01-22T19:39:34.865Z,0.80
2023-01-22T19:42:05.246Z,0.80
2023-01-22T19:44:34.363Z,0.80
2023-01-22T19:47:02.617Z,0.80
2023-01-22T19:49:30.273Z,0.80
2023-01-22T19:51:58.100Z,0.80
2023-01-22T19:54:25.707Z,0.90
2023-01-22T19:56:53.487Z,0.80
2023-01-22T19:59:24.050Z,0.90
2023-01-22T20:01:52.755Z,0.80
2023-01-22T20:04:25.078Z,0.70
2023-01-22T20:06:57.289Z,0.80
2023-01-22T20:09:24.775Z,0.70
2023-01-22T20:11:54.182Z,0.70
2023-01-22T20:14:24.543Z,0.70
2023-01-22T20:16:52.017Z,0.70
2023-01-22T20:19:19.540Z,0.70
2023-01-22T20:21:47.059Z,0.70
2023-01-22T20:24:14.440Z,0.70
2023-01-22T20:26:41.608Z,0.70
2023-01-22T20:29:08.772Z,0.70
2023-01-22T20:31:35.881Z,0.70
2023-01-22T20:34:04.954Z,0.70
2023-01-22T20:36:32.831Z,0.70
2023-01-22T20:39:02.005Z,0.80
2023-01-22T20:41:31.065Z,0.70
2023-01-22T20:43:58.383Z,0.70
2023-01-22T20:46:27.186Z,0.70
2023-01-22T20:48:58.166Z,0.80
2023-01-22T20:51:28.917Z,0.80
2023-01-22T20:53:57.412Z,0.80
2023-01-22T20:56:30.462Z,0.80
2023-01-22T20:59:00.825Z,0.80
2023-01-22T21:01:29.409Z,0.80
2023-01-22T21:03:58.345Z,0.80
2023-01-22T21:06:29.113Z,0.80
2023-01-22T21:08:59.327Z,0.80
2023-01-22T21:11:28.715Z,0.80
2023-01-22T21:13:57.640Z,0.80
2023-01-22T21:16:30.036Z,0.80
2023-01-22T21:19:00.775Z,0.80
2023-01-22T21:21:29.518Z,0.90
2023-01-22T21:23:58.077Z,0.90
2023-01-22T21:26:27.973Z,0.90
2023-01-22T21:28:58.478Z,0.90
2023-01-22T21:31:26.774Z,0.90
2023-01-22T21:34:02.938Z,0.90
2023-01-22T21:36:40.751Z,1.00
2023-01-22T21:39:14.237Z,1.00
2023-01-22T21:41:41.978Z,1.00
2023-01-22T21:44:32.968Z,1.00
2023-01-22T21:47:00.601Z,1.10
2023-01-22T21:49:28.795Z,1.00
2023-01-22T21:52:01.072Z,1.00
2023-01-22T21:54:34.211Z,1.00
2023-01-22T21:57:01.871Z,1.00
2023-01-22T21:59:29.251Z,1.00
2023-01-22T22:01:56.822Z,1.00
2023-01-22T22:04:26.128Z,0.90
2023-01-22T22:06:54.283Z,0.90
2023-01-22T22:09:24.807Z,1.00
2023-01-22T22:11:55.327Z,1.00
2023-01-22T22:14:22.933Z,1.00
2023-01-22T22:16:50.261Z,1.00
2023-01-22T22:19:18.643Z,1.00
2023-01-22T22:21:46.079Z,1.00
2023-01-22T22:24:14.078Z,1.00
2023-01-22T22:26:41.682Z,1.00
2023-01-22T22:29:09.797Z,1.00
2023-01-22T22:31:38.455Z,1.00
2023-01-22T22:34:06.230Z,1.00
2023-01-22T22:36:34.103Z,1.00
2023-01-22T22:39:02.234Z,1.00
2023-01-22T22:41:32.154Z,1.00
2023-01-22T22:43:59.568Z,1.00
2023-01-22T22:46:30.211Z,1.00
2023-01-22T22:48:59.647Z,1.00
2023-01-22T22:51:29.951Z,1.00
2023-01-22T22:53:59.487Z,1.00
2023-01-22T22:56:28.688Z,1.00
2023-01-22T22:58:56.256Z,1.10
2023-01-22T23:01:25.301Z,1.00
2023-01-22T23:03:53.676Z,1.00
2023-01-22T23:06:24.341Z,1.00
2023-01-22T23:08:54.227Z,1.00
2023-01-22T23:11:25.513Z,1.00
2023-01-22T23:13:53.544Z,1.00
2023-01-22T23:16:23.161Z,1.10
2023-01-22T23:18:52.038Z,1.10
2023-01-22T23:21:21.987Z,1.10
2023-01-22T23:23:50.633Z,1.10
2023-01-22T23:26:23.045Z,1.00
2023-01-22T23:28:52.388Z,1.00
2023-01-22T23:31:19.899Z,1.00
2023-01-22T23:33:47.160Z,1.00
2023-01-22T23:36:17.534Z,1.00
2023-01-22T23:38:45.411Z,1.00
2023-01-22T23:41:15.025Z,1.00
2023-01-22T23:43:43.326Z,1.00
2023-01-22T23:46:13.779Z,1.00
2023-01-22T23:48:41.257Z,1.00
2023-01-22T23:51:11.407Z,1.00
2023-01-22T23:53:40.424Z,1.00
2023-01-22T23:56:10.016Z,1.00
2023-01-22T23:58:37.480Z,1.00
